• Join FlightAware (Why Join?)
  • Login
  • US Flag 
10:01AM EDT


 

Airport Tracker/Info


-or-


 

Live Flight TrackerFlight Track Log ✈ N516QS ✈ 04-Sep-2013 ✈ KAPA - KJZI

Flight Track Log - Related Links

Times and Time Zones

All times are in EDT time to prevent confusion due to time zone crossing. See the N516QS flight status page for this flight to view local times or setup timezone preferences in your user account.

Time Position Orientation Groundspeed Altitude Reporting Facility
EDT Latitude Longitude Course Direction KTS MPH feet Rate Location/Type
09:09AM 39.5167 -104.8333 101° East 223 257 8,000  Level Denver TRACON
09:10AM 39.4833 -104.7333 113° Southeast 290 334 9,000 420 Climbing Denver TRACON
09:11AM 39.5167 -104.6333 67° East 297 342 9,000 480 Level Denver TRACON
09:12AM 39.5394 -104.5314 74° East 301 346 10,000 1,560 Climbing Denver Center
09:13AM 39.5678 -104.4256 71° East 314 361 12,200 2,220 Climbing Denver Center
09:14AM 39.3629 -103.5432 101° East  Level Estimated
09:14AM 39.5986 -104.3061 71° East 347 399 14,600  Level Denver Center
09:15AM 39.6358 -104.1664 71° East 380 437 17,400 2,400 Climbing Denver Center
09:16AM 39.6700 -104.0331 72° East 391 450 19,500 2,160 Climbing Denver Center
09:17AM 39.7069 -103.8908 71° East 415 478 21,900 2,340 Climbing Denver Center
09:18AM 39.7403 -103.7392 74° East 423 487 24,300 2,280 Climbing Denver Center
09:19AM 39.7294 -103.5828 95° East 437 503 26,500 1,920 Climbing Denver Center
09:20AM 39.7158 -103.4200 96° East 452 520 28,300 1,680 Climbing Denver Center
09:21AM 39.7022 -103.2514 96° East 467 537 30,000 1,620 Climbing Denver Center
09:22AM 39.6875 -103.0761 96° East 486 559 31,600 1,560 Climbing Denver Center
09:23AM 39.6736 -102.8992 96° East 494 568 33,200 1,800 Climbing Denver Center
09:24AM 39.6556 -102.7047 97° East 502 578 35,300 1,860 Climbing Denver Center
09:25AM 39.6406 -102.5358 97° East 494 568 37,000 840 Climbing Denver Center
09:26AM 39.6236 -102.3364 96° East 500 575 37,100 480 Climbing Denver Center
09:27AM 39.6072 -102.1631 97° East 505 581 38,000 900 Climbing Denver Center
09:28AM 39.5928 -101.9908 96° East 504 580 39,000 1,080 Climbing Denver Center
09:29AM 39.5758 -101.7903 96° East 502 578 40,200 960 Climbing Denver Center
09:30AM 39.5636 -101.6239 95° East 491 565 41,000 360 Climbing Denver Center
09:31AM 39.5467 -101.4269 96° East 493 567 41,000  Level Denver Center
09:32AM 39.5239 -101.2594 100° East 495 570 41,000  Level Denver Center
09:33AM 39.4981 -101.0917 101° East 498 573 41,000  Level Denver Center
09:34AM 39.4775 -100.9531 101° East 495 570 41,000  Level Denver Center
09:35AM 39.4439 -100.7308 101° East 495 570 41,000  Level Denver Center
09:36AM 39.4144 -100.5375 101° East 494 568 41,000  Level Denver Center
09:37AM 39.3883 -100.3728 102° East 491 565 41,000  Level Denver Center
09:38AM 39.3672 -100.2350 101° East 492 566 41,000  Level Denver Center
09:39AM 39.3322 -100.0153 102° East 491 565 41,000  Level Denver Center
09:40AM 39.3056 -99.8508 102° East 490 564 41,000  Level Denver Center
09:41AM 39.2797 -99.6850 101° East 492 566 41,000  Level Denver Center
09:42AM 39.2478 -99.4939 102° East 490 564 41,000  Level Denver Center
09:43AM 39.2211 -99.3269 102° East 495 570 41,000  Level Denver Center
09:44AM 39.1886 -99.1350 102° East 492 566 41,000  Level Denver Center
09:45AM 39.1589 -98.9553 102° East 495 570 41,000  Level Denver Center
09:46AM 39.1333 -98.8067 102° East 492 566 41,000  Level Denver Center
09:47AM 39.1097 -98.6692 102° East 492 566 41,000  Level Denver Center
09:48AM 39.0683 -98.4314 103° East 488 562 41,000  Level Denver Center
09:50AM 39.0356 -98.2400 102° East 494 568 41,000  Level Kansas City Center
09:51AM 38.9997 -98.0333 103° East 493 567 41,000  Level Kansas City Center
09:52AM 38.9686 -97.8606 103° East 494 568 41,000  Level Kansas City Center
09:53AM 38.9375 -97.6894 103° East 493 567 41,000  Level Kansas City Center
09:54AM 38.9081 -97.5247 103° East 494 568 41,000  Level Kansas City Center
09:55AM 38.8714 -97.3428 104° East 498 573 41,000  Level Kansas City Center
09:56AM 38.8367 -97.1700 104° East 499 574 41,000  Level Kansas City Center
09:57AM 38.8025 -96.9967 104° East 500 575 41,000  Level Kansas City Center
09:58AM 38.7678 -96.8231 104° East 502 578 41,000  Level Kansas City Center
09:59AM 38.7278 -96.6186 104° East 495 570 41,000  Level Kansas City Center
10:00AM 38.6917 -96.4556 106° East 495 570 41,000  Level Kansas City Center
10:01AM 38.6536 -96.2664 104° East 494 568 41,000  Level Kansas City Center
10:02AM 38.6194 -96.1039 105° East 495 570 41,000  Level Kansas City Center
10:03AM 38.5803 -95.9147 105° East 494 568 41,000  Level Kansas City Center
10:04AM 38.5464 -95.7531 105° East 493 567 41,000  Level Kansas City Center
10:05AM 38.5053 -95.5617 105° East 504 580 41,000  Level Kansas City Center
10:06AM 38.4711 -95.4011 105° East 498 573 41,000  Level Kansas City Center
10:07AM 38.4306 -95.2122 105° East 498 573 41,000  Level Kansas City Center
10:08AM 38.3944 -95.0494 106° East 498 573 41,000  Level Kansas City Center
10:09AM 38.3536 -94.8594 105° East 499 574 41,000  Level Kansas City Center
10:10AM 38.3178 -94.6969 106° East 500 575 41,000  Level Kansas City Center
10:11AM 38.2764 -94.5056 105° East 502 578 41,000  Level Kansas City Center
10:12AM 38.2514 -94.3386 101° East 502 578 41,000  Level Kansas City Center
10:13AM 38.2306 -94.1425 98° East 501 577 41,000  Level Kansas City Center
10:14AM 38.2075 -93.9756 100° East 495 570 41,000  Level Kansas City Center
10:15AM 38.1850 -93.8025 99° East 495 570 41,000  Level Kansas City Center
10:16AM 38.1639 -93.6294 99° East 496 571 41,000  Level Kansas City Center
10:18AM 38.1406 -93.4553 100° East 498 573 41,000  Level Kansas City Center
10:19AM 38.1133 -93.2467 99° East 498 573 41,000  Level Kansas City Center
10:20AM 38.0911 -93.0717 99° East 501 577 41,000  Level Kansas City Center
10:21AM 38.0686 -92.9003 99° East 496 571 41,000  Level Kansas City Center
10:22AM 38.0447 -92.7264 100° East 498 573 41,000  Level Kansas City Center
10:23AM 38.0189 -92.5469 100° East 516 594 41,000  Level Kansas City Center
10:24AM 37.9933 -92.3750 101° East 509 586 41,000  Level Kansas City Center
10:25AM 37.9694 -92.2003 100° East 507 583 41,000  Level Kansas City Center
10:26AM 37.9422 -92.0050 100° East 505 581 41,000  Level Kansas City Center
10:27AM 37.9169 -91.8311 100° East 503 579 41,000  Level Kansas City Center
10:28AM 37.8917 -91.6581 100° East 502 578 41,000  Level Kansas City Center
10:29AM 37.8611 -91.4492 100° East 501 577 41,000  Level Kansas City Center
10:30AM 37.8350 -91.2747 101° East 503 579 41,000  Level Kansas City Center
10:31AM 37.8083 -91.1003 101° East 504 580 41,000  Level Kansas City Center
10:32AM 37.7803 -90.9192 101° East 506 582 41,000  Level Kansas City Center
10:33AM 37.7531 -90.7456 101° East 507 583 41,000  Level Kansas City Center
10:34AM 37.7256 -90.5733 101° East 506 582 41,000  Level Kansas City Center
10:35AM 37.6983 -90.4000 101° East 506 582 41,000  Level Kansas City Center
10:36AM 37.6653 -90.2272 104° East 515 593 41,000  Level Kansas City Center
10:37AM 37.5903 -90.0333 116° Southeast 524 603 41,000  Level Kansas City Center
10:38AM 37.5189 -89.8606 117° Southeast 522 601 41,000  Level Kansas City Center
10:39AM 37.4528 -89.6953 117° Southeast 526 605 41,000  Level Kansas City Center
10:40AM 37.3850 -89.5319 118° Southeast 524 603 41,000  Level Kansas City Center
10:41AM 37.3172 -89.3722 118° Southeast 519 597 41,000  Level Kansas City Center
10:42AM 37.2772 -89.2753 117° Southeast 512 589 41,000  Level Memphis Center
10:43AM 37.2089 -89.1172 118° Southeast 512 589 41,000  Level Memphis Center
10:44AM 37.1428 -88.9544 117° Southeast 512 589 41,000  Level Memphis Center
10:45AM 37.0742 -88.7944 118° Southeast 512 589 41,000  Level Memphis Center
10:46AM 37.0033 -88.6319 119° Southeast 512 589 41,000  Level Memphis Center
10:47AM 36.9364 -88.4725 118° Southeast 512 589 41,000  Level Memphis Center
10:48AM 36.8669 -88.3133 119° Southeast 512 589 41,000  Level Memphis Center
10:49AM 36.7975 -88.1519 118° Southeast 512 589 41,000  Level Memphis Center
10:50AM 36.7261 -87.9986 120° Southeast 512 589 41,000  Level Memphis Center
10:51AM 36.6561 -87.8403 119° Southeast 517 595 41,000  Level Memphis Center
10:52AM 36.5928 -87.7000 119° Southeast 517 595 41,000  Level Memphis Center
10:53AM 36.5225 -87.5397 119° Southeast 517 595 41,000  Level Memphis Center
10:54AM 36.4522 -87.3875 120° Southeast 509 586 41,000  Level Memphis Center
10:55AM 36.3817 -87.2303 119° Southeast 509 586 41,000  Level Memphis Center
10:56AM 36.3089 -87.0758 120° Southeast 509 586 41,000  Level Memphis Center
10:57AM 36.2294 -86.9067 120° Southeast 514 592 41,000  Level Memphis Center
10:58AM 36.1625 -86.7553 119° Southeast 531 611 41,000  Level Memphis Center
10:59AM 36.0972 -86.5964 117° Southeast 525 604 41,000  Level Memphis Center
11:00AM 36.0342 -86.4375 116° Southeast 525 604 41,000  Level Memphis Center
11:01AM 35.9706 -86.2792 116° Southeast 519 597 41,000  Level Memphis Center
11:02AM 35.9047 -86.1183 117° Southeast 524 603 41,000  Level Memphis Center
11:03AM 35.7967 -85.8539 117° Southeast 512 589 41,000  Level Atlanta Center
11:04AM 35.7300 -85.7017 118° Southeast 512 589 41,000  Level Atlanta Center
11:05AM 35.6653 -85.5442 117° Southeast 512 589 41,000  Level Atlanta Center
11:06AM 35.6003 -85.3872 117° Southeast 517 595 41,000  Level Atlanta Center
11:07AM 35.5331 -85.2281 117° Southeast 517 595 41,000  Level Atlanta Center
11:08AM 35.4656 -85.0714 118° Southeast 517 595 41,000  Level Atlanta Center
11:09AM 35.3981 -84.9153 118° Southeast 522 601 41,000  Level Atlanta Center
11:10AM 35.3322 -84.7592 117° Southeast 517 595 41,000  Level Atlanta Center
11:11AM 35.2664 -84.6036 117° Southeast 517 595 41,000  Level Atlanta Center
11:12AM 35.1981 -84.4453 118° Southeast 517 595 41,000  Level Atlanta Center
11:13AM 35.1297 -84.2928 119° Southeast 522 601 41,000  Level Atlanta Center
11:14AM 35.0464 -84.1528 126° Southeast 522 601 41,000  Level Atlanta Center
11:15AM 34.9547 -84.0133 129° Southeast 522 601 41,000  Level Atlanta Center
11:16AM 34.8647 -83.8792 129° Southeast 522 601 41,000  Level Atlanta Center
11:17AM 34.7789 -83.7403 127° Southeast 517 595 41,000  Level Atlanta Center
11:18AM 34.6950 -83.6119 128° Southeast 522 601 41,000 -420 Level Atlanta Center
11:19AM 34.6047 -83.4811 130° Southeast 517 595 40,200 -1,080 Descending Atlanta Center
11:20AM 34.5144 -83.3431 128° Southeast 517 595 38,900 -1,620 Descending Atlanta Center
11:21AM 34.4239 -83.2103 130° Southeast 517 595 37,000 -2,400 Descending Atlanta Center
11:22AM 34.3311 -83.0778 130° Southeast 527 606 34,200 -2,700 Descending Atlanta Center
11:23AM 34.2339 -82.9308 129° Southeast 519 597 31,600 -2,280 Descending Atlanta Center
11:24AM 34.1386 -82.7939 130° Southeast 524 603 29,700 -1,800 Descending Atlanta Center
11:25AM 34.0494 -82.6622 129° Southeast 518 596 28,100 -1,380 Descending Atlanta Center
11:26AM 33.9583 -82.5311 130° Southeast 518 596 27,000 -600 Descending Atlanta Center
11:27AM 33.8689 -82.4000 129° Southeast 518 596 27,000  Level Atlanta Center
11:30AM 33.6858 -82.0989 126° Southeast 497 572 27,000  Level Jacksonville Center
11:31AM 33.6389 -81.9444 110° East 492 566 27,000  Level Jacksonville Center
11:32AM 33.5894 -81.7906 111° Southeast 492 566 27,000 -420 Level Jacksonville Center
11:33AM 33.5400 -81.6367 111° Southeast 492 566 26,200 -1,200 Descending Jacksonville Center
11:34AM 33.4947 -81.4878 110° East 486 559 24,700 -1,140 Descending Jacksonville Center
11:35AM 33.4492 -81.3392 110° East 480 552 24,000 -900 Descending Jacksonville Center
11:36AM 33.4014 -81.1958 112° Southeast 468 539 23,000 -1,320 Descending Jacksonville Center
11:37AM 33.3556 -81.0572 112° Southeast 463 533 21,400 -1,860 Descending Jacksonville Center
11:38AM 33.2892 -80.9344 123° Southeast 446 513 19,300 -2,220 Descending Jacksonville Center
11:39AM 33.2247 -80.8292 126° Southeast 424 488 17,000 -2,280 Descending Jacksonville Center
11:40AM 33.1625 -80.7314 127° Southeast 390 449 14,800 -2,100 Descending Jacksonville Center
11:41AM 33.1047 -80.6386 127° Southeast 362 417 12,900 -2,100 Descending Jacksonville Center
11:42AM 33.0489 -80.5506 127° Southeast 349 402 10,700 -1,500 Descending Jacksonville Center
11:43AM 32.9928 -80.4656 128° Southeast 337 388 9,900 -480 Descending Jacksonville Center
11:44AM 32.9389 -80.3778 126° Southeast 331 381 9,800 -720 Descending Jacksonville Center
11:45AM 32.8872 -80.2975 127° Southeast 325 374 8,500 -1,620 Descending Jacksonville Center
11:46AM 32.8175 -80.2503 150° Southeast 299 344 6,600 -1,320 Descending Jacksonville Center
11:47AM 32.7475 -80.2078 153° Southeast 288 331 5,900 -720 Descending Jacksonville Center
11:48AM 32.7167 -80.1297 115° Southeast 253 291 5,200 -720 Descending Jacksonville Center
11:50AM 32.7000 -80.0000 115° Southeast  Level FlightAware Approximate
11:57AM 32.7010 -80.0033 115° Southeast  Level Estimated
11:58AM 32.7000 -80.0000 115° Southeast  Level FlightAware Approximate
11:59AM 32.7010 -80.0033 115° Southeast  Level Estimated
12:00PM 32.7000 -80.0000 115° Southeast  Level FlightAware Approximate
12:01PM 32.7010 -80.0033 115° Southeast  Level Estimated
12:02PM 32.7000 -80.0000 115° Southeast  Level FlightAware Approximate
12:03PM 32.7010 -80.0033 115° Southeast  Level Estimated
12:04PM 32.7000 -80.0000 115° Southeast  Level FlightAware Approximate
12:05PM 32.7010 -80.0033 115° Southeast  Level Estimated
12:06PM 32.7000 -80.0000 115° Southeast  Level FlightAware Approximate
12:07PM 32.7010 -80.0033 115° Southeast  Level Estimated
12:08PM 32.7000 -80.0000 115° Southeast  Level FlightAware Approximate